Time;durP1;ratioP1;P1;durP2;ratioP2;P2;SDS_P1;SDS_P2;PMS_P1;PMS_P2;Temp;Humidity;BMP_temperature;BMP_pressure;BME280_temperature;BME280_humidity;BME280_pressure;Samples;Min_cycle;Max_cycle;Signal;HPM_P1;HPM_P2
2024/01/17 00:01:43;;;;;;;;;;;11.30;99.90;;;;;;5117329;28;19907;-75
2024/01/17 00:04:09;;;;;;;;;;;11.40;99.90;;;;;;5117309;28;19903;-76
2024/01/17 00:06:34;;;;;;;;;;;11.50;99.90;;;;;;5102313;28;19904;-75
2024/01/17 00:09:00;;;;;;;;;;;11.50;99.90;;;;;;5115410;28;20383;-76
2024/01/17 00:11:25;;;;;;;;;;;11.50;99.90;;;;;;5115817;28;19915;-74
2024/01/17 00:13:51;;;;;;;;;;;11.50;99.90;;;;;;5115385;28;19907;-77
2024/01/17 00:16:20;;;;;;;;;;;11.60;99.90;;;;;;5116199;28;19903;-77
2024/01/17 00:18:46;;;;;;;;;;;11.70;99.90;;;;;;5104379;28;19914;-76
2024/01/17 00:21:11;;;;;;;;;;;11.70;99.90;;;;;;5116811;28;19908;-76
2024/01/17 00:23:37;;;;;;;;;;;11.70;99.90;;;;;;5115135;28;19904;-77
2024/01/17 00:26:02;;;;;;;;;;;11.70;99.90;;;;;;5116953;27;19904;-77
2024/01/17 00:28:28;;;;;;;;;;;11.70;99.90;;;;;;5116656;28;19903;-78
2024/01/17 00:30:53;;;;;;;;;;;11.70;99.90;;;;;;5116472;28;19907;-77
2024/01/17 00:33:19;;;;;;;;;;;11.80;99.90;;;;;;5116598;28;19904;-76
2024/01/17 00:35:44;;;;;;;;;;;11.80;99.90;;;;;;5116451;28;19904;-76
2024/01/17 00:38:10;;;;;;;;;;;11.70;99.90;;;;;;5116570;28;19912;-75
2024/01/17 00:40:35;;;;;;;;;;;11.70;99.90;;;;;;5116790;28;19908;-75
2024/01/17 00:43:01;;;;;;;;;;;11.70;99.90;;;;;;5116473;28;19920;-75
2024/01/17 00:45:26;;;;;;;;;;;11.60;99.90;;;;;;5115270;28;19908;-75
2024/01/17 00:47:52;;;;;;;;;;;11.60;99.90;;;;;;5113951;28;19953;-76
2024/01/17 00:50:18;;;;;;;;;;;11.60;99.90;;;;;;5114918;28;19903;-76
2024/01/17 00:52:44;;;;;;;;;;;11.60;99.90;;;;;;5114631;28;19908;-74
2024/01/17 00:55:09;;;;;;;;;;;11.60;99.90;;;;;;5115266;28;20324;-78
2024/01/17 00:57:35;;;;;;;;;;;11.50;99.90;;;;;;5116081;28;20295;-76
2024/01/17 01:00:00;;;;;;;;;;;11.50;99.90;;;;;;5116541;28;19949;-76
2024/01/17 01:02:26;;;;;;;;;;;11.50;99.90;;;;;;5116391;28;19938;-76
2024/01/17 01:04:51;;;;;;;;;;;11.50;99.90;;;;;;5116109;28;19918;-77
2024/01/17 01:07:17;;;;;;;;;;;11.50;99.90;;;;;;5115970;28;20006;-80
2024/01/17 01:09:43;;;;;;;;;;;11.50;99.90;;;;;;5114916;28;19957;-78
2024/01/17 01:12:08;;;;;;;;;;;11.50;99.90;;;;;;5113877;28;19915;-77
2024/01/17 01:14:34;;;;;;;;;;;11.40;99.90;;;;;;5116236;28;20029;-77
2024/01/17 01:16:59;;;;;;;;;;;11.50;99.90;;;;;;5102574;28;19943;-76
2024/01/17 01:19:25;;;;;;;;;;;11.40;99.90;;;;;;5116178;28;19911;-78
2024/01/17 01:21:50;;;;;;;;;;;11.40;99.90;;;;;;5115951;28;19908;-77
2024/01/17 01:24:16;;;;;;;;;;;11.40;99.90;;;;;;5116069;28;19907;-76
2024/01/17 01:26:41;;;;;;;;;;;11.30;99.90;;;;;;5116175;28;19911;-76
2024/01/17 01:29:07;;;;;;;;;;;11.30;99.90;;;;;;5119247;28;19904;-76
2024/01/17 01:31:33;;;;;;;;;;;11.30;99.90;;;;;;5117378;28;19912;-77
2024/01/17 01:33:59;;;;;;;;;;;11.20;99.90;;;;;;5120121;28;19911;-76
2024/01/17 01:36:24;;;;;;;;;;;11.20;99.90;;;;;;5119778;28;19904;-76
2024/01/17 01:38:50;;;;;;;;;;;11.10;99.90;;;;;;5120162;28;19907;-76
2024/01/17 01:41:15;;;;;;;;;;;11.10;99.90;;;;;;5118635;28;19915;-76
2024/01/17 01:43:41;;;;;;;;;;;11.00;99.90;;;;;;5118871;28;20379;-77
2024/01/17 01:46:14;;;;;;;;;;;11.00;99.90;;;;;;5119763;28;19939;-76
2024/01/17 01:48:40;;;;;;;;;;;11.00;99.90;;;;;;5118096;28;19908;-76
2024/01/17 01:51:06;;;;;;;;;;;10.90;99.90;;;;;;5119625;28;19995;-76
2024/01/17 01:53:32;;;;;;;;;;;10.90;99.90;;;;;;5119558;28;19939;-80
2024/01/17 01:55:58;;;;;;;;;;;10.90;99.90;;;;;;5116814;28;19920;-76
2024/01/17 01:58:25;;;;;;;;;;;10.90;99.90;;;;;;5108754;28;19942;-76
2024/01/17 02:00:52;;;;;;;;;;;10.90;99.90;;;;;;5119143;28;19907;-77
2024/01/17 02:03:18;;;;;;;;;;;10.80;99.90;;;;;;5119597;28;19903;-79
2024/01/17 02:05:45;;;;;;;;;;;10.90;99.90;;;;;;5119660;28;19927;-78
2024/01/17 02:08:11;;;;;;;;;;;10.80;99.90;;;;;;5119323;28;19912;-75
2024/01/17 02:10:37;;;;;;;;;;;10.80;99.90;;;;;;5119543;28;19994;-76
2024/01/17 02:13:03;;;;;;;;;;;10.80;99.90;;;;;;5119354;28;19908;-78
2024/01/17 02:15:28;;;;;;;;;;;10.80;99.90;;;;;;5115130;27;20458;-76
2024/01/17 02:17:54;;;;;;;;;;;10.80;99.90;;;;;;5114866;28;19923;-78
2024/01/17 02:20:19;;;;;;;;;;;10.80;99.90;;;;;;5119362;28;19911;-79
2024/01/17 02:22:45;;;;;;;;;;;10.80;99.90;;;;;;5119166;28;19910;-82
2024/01/17 02:25:11;;;;;;;;;;;10.70;99.90;;;;;;5115250;28;19935;-79
2024/01/17 02:27:37;;;;;;;;;;;10.80;99.90;;;;;;5113709;28;20367;-79
2024/01/17 02:30:02;;;;;;;;;;;10.70;99.90;;;;;;5117894;28;19911;-76
2024/01/17 02:32:28;;;;;;;;;;;10.70;99.90;;;;;;5118933;28;19912;-76
2024/01/17 02:34:54;;;;;;;;;;;10.70;99.90;;;;;;5117340;28;19915;-78
2024/01/17 02:37:19;;;;;;;;;;;10.70;99.90;;;;;;5117240;28;19907;-81
2024/01/17 02:39:45;;;;;;;;;;;10.70;99.90;;;;;;5116898;28;19910;-79
2024/01/17 02:42:10;;;;;;;;;;;10.70;99.90;;;;;;5118587;28;19911;-78
2024/01/17 02:44:36;;;;;;;;;;;10.70;99.90;;;;;;5117310;28;20003;-86
2024/01/17 02:47:01;;;;;;;;;;;10.70;99.90;;;;;;5118425;28;19908;-81
2024/01/17 02:49:27;;;;;;;;;;;10.70;99.90;;;;;;5118624;28;19908;-76
2024/01/17 02:51:52;;;;;;;;;;;10.70;99.90;;;;;;5118033;28;20053;-79
2024/01/17 02:54:18;;;;;;;;;;;10.70;99.90;;;;;;5118628;28;19939;-76
2024/01/17 02:56:44;;;;;;;;;;;10.70;99.90;;;;;;5118648;27;19951;-77
2024/01/17 02:59:09;;;;;;;;;;;10.70;99.90;;;;;;5118760;28;19922;-76
2024/01/17 03:01:35;;;;;;;;;;;10.70;99.90;;;;;;5118273;28;19908;-75
2024/01/17 03:04:00;;;;;;;;;;;10.70;99.90;;;;;;5117223;28;19915;-77
2024/01/17 03:06:26;;;;;;;;;;;10.70;99.90;;;;;;5117856;28;20011;-77
2024/01/17 03:08:52;;;;;;;;;;;10.70;99.90;;;;;;5117205;28;20641;-74
2024/01/17 03:11:17;;;;;;;;;;;10.70;99.90;;;;;;5118381;28;20014;-74
2024/01/17 03:13:43;;;;;;;;;;;10.70;99.90;;;;;;5118293;28;19904;-74
2024/01/17 03:16:08;;;;;;;;;;;10.70;99.90;;;;;;5118098;28;19903;-73
2024/01/17 03:18:36;;;;;;;;;;;10.70;99.90;;;;;;5118188;28;19903;-73
2024/01/17 03:21:05;;;;;;;;;;;10.70;99.90;;;;;;5117659;28;19907;-76
2024/01/17 03:23:30;;;;;;;;;;;10.70;99.90;;;;;;5116733;28;19911;-74
2024/01/17 03:25:56;;;;;;;;;;;10.80;99.90;;;;;;5117926;28;19907;-75
2024/01/17 03:28:21;;;;;;;;;;;10.80;99.90;;;;;;5118172;28;19908;-74
2024/01/17 03:30:47;;;;;;;;;;;10.80;99.90;;;;;;5117562;28;19910;-74
2024/01/17 03:33:13;;;;;;;;;;;10.70;99.90;;;;;;5118042;27;20283;-74
2024/01/17 03:35:38;;;;;;;;;;;10.70;99.90;;;;;;5117062;28;19911;-74
2024/01/17 03:38:04;;;;;;;;;;;10.70;99.90;;;;;;5117900;28;19903;-75
2024/01/17 03:40:29;;;;;;;;;;;10.70;99.90;;;;;;5116392;28;20363;-75
2024/01/17 03:42:55;;;;;;;;;;;10.70;99.90;;;;;;5116224;28;19911;-73
2024/01/17 03:45:21;;;;;;;;;;;10.70;99.90;;;;;;5116387;28;19918;-74
2024/01/17 03:47:46;;;;;;;;;;;10.60;99.90;;;;;;5113498;28;19908;-75
2024/01/17 03:50:12;;;;;;;;;;;10.60;99.90;;;;;;5105525;28;20342;-73
2024/01/17 03:52:38;;;;;;;;;;;10.60;99.90;;;;;;5115310;28;20287;-75
2024/01/17 03:55:03;;;;;;;;;;;10.50;99.90;;;;;;5117165;28;19935;-75
2024/01/17 03:57:29;;;;;;;;;;;10.50;99.90;;;;;;5117367;27;19919;-75
2024/01/17 03:59:54;;;;;;;;;;;10.50;99.90;;;;;;5115294;28;19912;-74
2024/01/17 04:02:20;;;;;;;;;;;10.50;99.90;;;;;;5112215;28;20390;-76
2024/01/17 04:04:47;;;;;;;;;;;10.50;99.90;;;;;;5105477;28;20503;-76
2024/01/17 04:07:12;;;;;;;;;;;10.40;99.90;;;;;;5116233;28;19922;-75
2024/01/17 04:09:38;;;;;;;;;;;10.40;99.90;;;;;;5115818;28;20668;-77
2024/01/17 04:12:04;;;;;;;;;;;10.40;99.90;;;;;;5116641;28;19937;-77
2024/01/17 04:14:29;;;;;;;;;;;10.40;99.90;;;;;;5116281;28;19933;-74
2024/01/17 04:16:55;;;;;;;;;;;10.40;99.90;;;;;;5112805;27;19947;-75
2024/01/17 04:19:20;;;;;;;;;;;10.40;99.90;;;;;;5115570;28;19911;-77
2024/01/17 04:21:46;;;;;;;;;;;10.40;99.90;;;;;;5116517;28;19929;-77
2024/01/17 04:24:11;;;;;;;;;;;10.40;99.90;;;;;;5116693;28;19954;-75
2024/01/17 04:26:37;;;;;;;;;;;10.40;99.90;;;;;;5116999;28;19914;-73
2024/01/17 04:29:03;;;;;;;;;;;10.40;99.90;;;;;;5117102;28;19907;-76
2024/01/17 04:31:29;;;;;;;;;;;10.40;99.90;;;;;;5113619;28;19912;-77
2024/01/17 04:33:55;;;;;;;;;;;10.30;99.90;;;;;;5113957;28;19912;-76
2024/01/17 04:36:21;;;;;;;;;;;10.30;99.90;;;;;;5115964;28;19910;-76
2024/01/17 04:38:47;;;;;;;;;;;10.30;99.90;;;;;;5116757;28;20003;-76
2024/01/17 04:41:13;;;;;;;;;;;10.30;99.90;;;;;;5116531;28;19958;-76
2024/01/17 04:43:42;;;;;;;;;;;10.30;99.90;;;;;;5116501;28;19903;-75
2024/01/17 04:46:09;;;;;;;;;;;10.30;99.90;;;;;;5116610;28;20403;-76
2024/01/17 04:48:35;;;;;;;;;;;10.30;99.90;;;;;;5115036;28;19915;-75
2024/01/17 04:51:01;;;;;;;;;;;10.40;99.90;;;;;;5116293;28;20341;-75
2024/01/17 04:53:27;;;;;;;;;;;10.40;99.90;;;;;;5115012;28;20033;-75
2024/01/17 04:55:53;;;;;;;;;;;10.40;99.90;;;;;;5116561;28;20707;-76
2024/01/17 04:58:19;;;;;;;;;;;10.30;99.90;;;;;;5116222;28;19907;-76
2024/01/17 05:00:45;;;;;;;;;;;10.40;99.90;;;;;;5116282;28;19904;-75
2024/01/17 05:03:11;;;;;;;;;;;10.40;99.90;;;;;;5115845;28;19907;-74
2024/01/17 05:05:36;;;;;;;;;;;10.40;99.90;;;;;;5116282;28;19954;-75
2024/01/17 05:08:02;;;;;;;;;;;10.30;99.90;;;;;;5114338;28;19903;-77
2024/01/17 05:10:27;;;;;;;;;;;10.30;99.90;;;;;;5116543;28;19910;-77
2024/01/17 05:12:53;;;;;;;;;;;10.30;99.90;;;;;;5114750;28;19924;-77
2024/01/17 05:15:18;;;;;;;;;;;10.30;99.90;;;;;;5112718;28;19908;-77
2024/01/17 05:17:44;;;;;;;;;;;10.40;99.90;;;;;;5105005;28;19908;-76
2024/01/17 05:20:10;;;;;;;;;;;10.40;99.90;;;;;;5094788;28;20333;-76
2024/01/17 05:22:39;;;;;;;;;;;10.40;99.90;;;;;;5106116;28;20344;-77
2024/01/17 05:25:06;;;;;;;;;;;10.30;99.90;;;;;;5116140;28;20010;-76
2024/01/17 05:27:32;;;;;;;;;;;10.40;99.90;;;;;;5114588;28;19911;-76
2024/01/17 05:29:58;;;;;;;;;;;10.30;99.90;;;;;;5113692;28;19903;-79
2024/01/17 05:32:23;;;;;;;;;;;10.40;99.90;;;;;;5115709;28;19923;-76
2024/01/17 05:34:50;;;;;;;;;;;10.30;99.90;;;;;;5113691;28;19907;-76
2024/01/17 05:37:16;;;;;;;;;;;10.30;99.90;;;;;;5115781;28;19904;-77
2024/01/17 05:39:41;;;;;;;;;;;10.30;99.90;;;;;;5116117;28;20291;-76
2024/01/17 05:42:07;;;;;;;;;;;10.30;99.90;;;;;;5114779;28;19911;-75
2024/01/17 05:44:32;;;;;;;;;;;10.30;99.90;;;;;;5116089;28;20359;-76
2024/01/17 05:46:58;;;;;;;;;;;10.30;99.90;;;;;;5115649;28;20379;-76
2024/01/17 05:49:23;;;;;;;;;;;10.30;99.90;;;;;;5115023;28;20290;-74
2024/01/17 05:51:50;;;;;;;;;;;10.30;99.90;;;;;;5115360;28;19912;-75
2024/01/17 05:54:15;;;;;;;;;;;10.30;99.90;;;;;;5116103;28;19908;-76
2024/01/17 05:56:40;;;;;;;;;;;10.40;99.90;;;;;;5114433;28;20548;-75
2024/01/17 05:59:06;;;;;;;;;;;10.40;99.90;;;;;;5114119;28;19914;-75
2024/01/17 06:01:34;;;;;;;;;;;10.40;99.90;;;;;;5113778;28;20363;-75
2024/01/17 06:03:59;;;;;;;;;;;10.50;99.90;;;;;;5116023;28;19904;-76
2024/01/17 06:06:25;;;;;;;;;;;10.40;99.90;;;;;;5114182;28;20410;-74
2024/01/17 06:08:50;;;;;;;;;;;10.40;99.90;;;;;;5106390;28;20276;-75
2024/01/17 06:11:16;;;;;;;;;;;10.40;99.90;;;;;;5110812;28;19994;-76
2024/01/17 06:13:42;;;;;;;;;;;10.50;99.90;;;;;;5114413;28;19912;-75
2024/01/17 06:16:07;;;;;;;;;;;10.40;99.90;;;;;;5109171;28;19904;-76
2024/01/17 06:18:33;;;;;;;;;;;10.50;99.90;;;;;;5118015;28;19904;-74
2024/01/17 06:20:59;;;;;;;;;;;10.50;99.90;;;;;;5118011;28;19903;-73
2024/01/17 06:23:24;;;;;;;;;;;10.50;99.90;;;;;;5117840;28;19926;-77
2024/01/17 06:25:50;;;;;;;;;;;10.50;99.90;;;;;;5117890;28;19994;-76
2024/01/17 06:28:18;;;;;;;;;;;10.50;99.90;;;;;;5117825;28;20325;-76
2024/01/17 06:30:43;;;;;;;;;;;10.50;99.90;;;;;;5117556;28;19904;-75
2024/01/17 06:33:10;;;;;;;;;;;10.50;99.90;;;;;;5119062;28;19907;-76
2024/01/17 06:35:35;;;;;;;;;;;10.50;99.90;;;;;;5118673;28;20033;-77
2024/01/17 06:38:01;;;;;;;;;;;10.50;99.90;;;;;;5117689;28;19951;-74
2024/01/17 06:40:26;;;;;;;;;;;10.50;99.90;;;;;;5119130;28;19908;-74
2024/01/17 06:42:52;;;;;;;;;;;10.50;99.90;;;;;;5118890;28;19939;-75
2024/01/17 06:45:18;;;;;;;;;;;10.50;99.90;;;;;;5118811;28;19908;-76
2024/01/17 06:47:43;;;;;;;;;;;10.50;99.90;;;;;;5127712;27;19908;-77
2024/01/17 06:50:09;;;;;;;;;;;10.50;99.90;;;;;;5102593;28;19947;-75
2024/01/17 06:52:35;;;;;;;;;;;10.50;99.90;;;;;;5114716;28;20387;-73
2024/01/17 06:55:00;;;;;;;;;;;10.50;99.90;;;;;;5117914;28;19904;-75
2024/01/17 06:57:26;;;;;;;;;;;10.60;99.90;;;;;;5118523;28;19968;-76
2024/01/17 06:59:52;;;;;;;;;;;10.60;99.90;;;;;;5118356;28;20049;-75
2024/01/17 07:02:17;;;;;;;;;;;10.60;99.90;;;;;;5118600;28;19915;-76
2024/01/17 07:04:43;;;;;;;;;;;10.60;99.90;;;;;;5118159;28;19915;-74
2024/01/17 07:07:08;;;;;;;;;;;10.60;99.90;;;;;;5118400;28;19956;-76
2024/01/17 07:09:34;;;;;;;;;;;10.60;99.90;;;;;;5118037;28;19916;-75
2024/01/17 07:12:00;;;;;;;;;;;10.60;99.90;;;;;;5118085;28;19915;-75
2024/01/17 07:14:25;;;;;;;;;;;10.60;99.90;;;;;;5117807;28;19946;-76
2024/01/17 07:16:51;;;;;;;;;;;10.60;99.90;;;;;;5109518;28;20380;-76
2024/01/17 07:19:16;;;;;;;;;;;10.60;99.90;;;;;;5118011;28;20659;-76
2024/01/17 07:21:42;;;;;;;;;;;10.60;99.90;;;;;;5117685;28;20359;-76
2024/01/17 07:24:10;;;;;;;;;;;10.60;99.90;;;;;;5117622;28;19914;-75
2024/01/17 07:26:36;;;;;;;;;;;10.60;99.90;;;;;;5116425;28;19904;-77
2024/01/17 07:29:01;;;;;;;;;;;10.70;99.90;;;;;;5117724;28;20386;-77
2024/01/17 07:31:27;;;;;;;;;;;10.70;99.90;;;;;;5116675;28;19920;-77
2024/01/17 07:33:53;;;;;;;;;;;10.70;99.90;;;;;;5116737;28;19907;-77
2024/01/17 07:36:18;;;;;;;;;;;10.60;99.90;;;;;;5117211;28;19949;-76
2024/01/17 07:38:44;;;;;;;;;;;10.60;99.90;;;;;;5116369;28;19911;-76
2024/01/17 07:41:09;;;;;;;;;;;10.60;99.90;;;;;;5117576;28;20395;-76
2024/01/17 07:43:35;;;;;;;;;;;10.70;99.90;;;;;;5116708;28;20371;-75
2024/01/17 07:46:00;;;;;;;;;;;10.70;99.90;;;;;;5117141;28;20041;-75
2024/01/17 07:48:26;;;;;;;;;;;10.70;99.90;;;;;;5117610;28;19904;-77
2024/01/17 07:50:52;;;;;;;;;;;10.60;99.90;;;;;;5103837;28;19907;-76
2024/01/17 07:53:17;;;;;;;;;;;10.70;99.90;;;;;;5117352;28;19998;-81
2024/01/17 07:55:43;;;;;;;;;;;10.70;99.90;;;;;;5102416;28;19920;-79
2024/01/17 07:58:10;;;;;;;;;;;10.70;99.90;;;;;;5092389;28;19957;-79
2024/01/17 08:00:35;;;;;;;;;;;10.70;99.90;;;;;;5100290;28;20414;-77
2024/01/17 08:03:01;;;;;;;;;;;10.70;99.90;;;;;;5093975;28;19915;-76
2024/01/17 08:05:26;;;;;;;;;;;10.70;99.90;;;;;;5105377;28;19911;-77
2024/01/17 08:07:52;;;;;;;;;;;10.70;99.90;;;;;;5092382;28;20005;-76
2024/01/17 08:10:17;;;;;;;;;;;10.80;99.90;;;;;;5092305;28;20161;-81
2024/01/17 08:12:44;;;;;;;;;;;10.80;99.90;;;;;;5091081;28;19911;-77
2024/01/17 08:15:10;;;;;;;;;;;10.80;99.90;;;;;;5096264;28;20368;-77
2024/01/17 08:17:36;;;;;;;;;;;10.80;99.90;;;;;;5099507;28;19981;-77
2024/01/17 08:20:03;;;;;;;;;;;10.80;99.90;;;;;;5099044;28;19912;-80
2024/01/17 08:22:29;;;;;;;;;;;10.80;99.90;;;;;;5096027;28;19904;-80
2024/01/17 08:24:54;;;;;;;;;;;10.80;99.90;;;;;;5092452;28;19912;-76
2024/01/17 08:27:20;;;;;;;;;;;10.80;99.90;;;;;;5097038;28;19919;-77
2024/01/17 08:29:46;;;;;;;;;;;10.90;99.90;;;;;;5092102;28;20344;-77
2024/01/17 08:32:11;;;;;;;;;;;10.80;99.90;;;;;;5109191;28;19916;-76
2024/01/17 08:34:37;;;;;;;;;;;10.80;99.90;;;;;;5098277;28;19912;-78
2024/01/17 08:37:03;;;;;;;;;;;10.80;99.90;;;;;;5095757;28;19979;-77
2024/01/17 08:39:29;;;;;;;;;;;10.90;99.90;;;;;;5104676;28;20403;-76
2024/01/17 08:41:54;;;;;;;;;;;10.80;99.90;;;;;;5091842;28;20654;-77
2024/01/17 08:44:20;;;;;;;;;;;10.80;99.90;;;;;;5091949;28;19955;-76
2024/01/17 08:46:46;;;;;;;;;;;10.90;99.90;;;;;;5092727;28;19966;-80
2024/01/17 08:49:12;;;;;;;;;;;10.90;99.90;;;;;;5104192;28;19912;-77
2024/01/17 08:51:37;;;;;;;;;;;10.90;99.90;;;;;;5102340;28;19961;-77
2024/01/17 08:54:03;;;;;;;;;;;10.90;99.90;;;;;;5105063;28;19907;-76
2024/01/17 08:56:29;;;;;;;;;;;10.90;99.90;;;;;;5104894;28;20407;-77
2024/01/17 08:58:56;;;;;;;;;;;10.90;99.90;;;;;;5101531;28;20041;-77
2024/01/17 09:01:22;;;;;;;;;;;10.90;99.90;;;;;;5099050;28;19912;-77
2024/01/17 09:03:47;;;;;;;;;;;10.90;99.90;;;;;;5108438;28;19904;-76
2024/01/17 09:06:13;;;;;;;;;;;10.90;99.90;;;;;;5101282;28;20372;-76
2024/01/17 09:08:38;;;;;;;;;;;10.90;99.90;;;;;;5108018;28;20356;-79
2024/01/17 09:11:05;;;;;;;;;;;10.90;99.90;;;;;;5114343;28;20566;-77
2024/01/17 09:13:31;;;;;;;;;;;11.00;99.90;;;;;;5106936;28;19919;-78
2024/01/17 09:15:57;;;;;;;;;;;11.00;99.90;;;;;;5107389;28;19912;-77
2024/01/17 09:18:22;;;;;;;;;;;11.00;99.90;;;;;;5108937;28;19916;-77
2024/01/17 09:20:48;;;;;;;;;;;11.00;99.90;;;;;;5109945;28;20383;-76
2024/01/17 09:23:13;;;;;;;;;;;11.00;99.90;;;;;;5111642;28;19904;-81
2024/01/17 09:25:39;;;;;;;;;;;11.00;99.90;;;;;;5111715;28;19904;-78
2024/01/17 09:28:05;;;;;;;;;;;11.00;99.90;;;;;;5110253;28;19990;-76
2024/01/17 09:30:31;;;;;;;;;;;11.10;99.90;;;;;;5113224;28;19903;-80
2024/01/17 09:32:56;;;;;;;;;;;11.00;99.90;;;;;;5113717;28;19976;-76
2024/01/17 09:35:22;;;;;;;;;;;11.00;99.90;;;;;;5112669;28;20321;-77
2024/01/17 09:37:47;;;;;;;;;;;11.10;99.90;;;;;;5110840;28;20038;-76
2024/01/17 09:40:13;;;;;;;;;;;11.10;99.90;;;;;;5114525;27;19904;-80
2024/01/17 09:42:39;;;;;;;;;;;11.10;99.90;;;;;;5112338;28;19904;-76
2024/01/17 09:45:07;;;;;;;;;;;11.10;99.90;;;;;;5109009;28;19910;-75
2024/01/17 09:47:33;;;;;;;;;;;11.20;99.90;;;;;;5110619;28;19922;-76
2024/01/17 09:49:59;;;;;;;;;;;11.20;99.90;;;;;;5111083;28;20065;-76
2024/01/17 09:52:25;;;;;;;;;;;11.20;99.90;;;;;;5115410;28;19915;-75
2024/01/17 09:54:51;;;;;;;;;;;11.20;99.90;;;;;;5111322;28;19908;-76
2024/01/17 09:57:24;;;;;;;;;;;11.30;99.90;;;;;;5114271;28;19924;-76
2024/01/17 09:59:51;;;;;;;;;;;11.30;99.90;;;;;;5115145;28;19935;-78
2024/01/17 10:02:18;;;;;;;;;;;11.30;99.90;;;;;;5114137;28;19903;-75
2024/01/17 10:04:46;;;;;;;;;;;11.30;99.90;;;;;;5114154;28;19966;-76
2024/01/17 10:07:12;;;;;;;;;;;11.30;99.90;;;;;;5109688;28;19908;-76
2024/01/17 10:09:38;;;;;;;;;;;11.30;99.90;;;;;;5112680;28;19908;-78
2024/01/17 10:12:04;;;;;;;;;;;11.30;99.90;;;;;;5108654;28;20352;-76
2024/01/17 10:14:29;;;;;;;;;;;11.30;99.90;;;;;;5110150;28;19907;-80
2024/01/17 10:16:55;;;;;;;;;;;11.30;99.90;;;;;;5112958;28;19912;-76
2024/01/17 10:19:24;;;;;;;;;;;11.40;99.90;;;;;;5112889;28;19904;-76
2024/01/17 10:21:50;;;;;;;;;;;11.40;99.90;;;;;;5112878;28;19904;-76
2024/01/17 10:24:15;;;;;;;;;;;11.40;99.90;;;;;;5114259;28;19929;-76
2024/01/17 10:26:41;;;;;;;;;;;11.50;99.90;;;;;;5113026;28;19915;-76
2024/01/17 10:29:08;;;;;;;;;;;11.60;99.90;;;;;;5113651;27;20052;-78
2024/01/17 10:31:33;;;;;;;;;;;11.70;99.90;;;;;;5109973;28;20715;-76
2024/01/17 10:33:59;;;;;;;;;;;11.80;99.90;;;;;;5112709;28;19908;-77
2024/01/17 10:36:24;;;;;;;;;;;12.00;99.90;;;;;;5113227;28;19908;-77
2024/01/17 10:38:50;;;;;;;;;;;12.10;99.90;;;;;;5114007;28;19911;-76
2024/01/17 10:41:16;;;;;;;;;;;12.20;99.90;;;;;;5111468;27;19904;-76
2024/01/17 10:43:53;;;;;;;;;;;12.20;99.90;;;;;;5110627;28;20003;-77
2024/01/17 10:46:18;;;;;;;;;;;12.20;99.90;;;;;;5107144;28;20394;-81
2024/01/17 10:48:44;;;;;;;;;;;12.40;99.90;;;;;;5110607;28;19914;-78
2024/01/17 10:51:14;;;;;;;;;;;12.40;99.90;;;;;;5114552;28;19986;-76
2024/01/17 10:53:39;;;;;;;;;;;12.50;99.90;;;;;;5113432;27;19912;-78
2024/01/17 10:56:06;;;;;;;;;;;12.60;99.90;;;;;;5111884;28;19915;-76
2024/01/17 10:58:34;;;;;;;;;;;12.60;99.90;;;;;;5113396;28;19986;-76
2024/01/17 11:01:02;;;;;;;;;;;12.60;99.90;;;;;;5111665;28;20344;-79
2024/01/17 11:03:29;;;;;;;;;;;12.70;99.90;;;;;;5113520;27;19919;-75
2024/01/17 11:05:55;;;;;;;;;;;12.70;99.90;;;;;;5108815;28;19996;-75
2024/01/17 11:08:21;;;;;;;;;;;12.70;99.90;;;;;;5106026;28;20304;-75
2024/01/17 11:10:47;;;;;;;;;;;12.60;99.90;;;;;;5106723;28;19908;-76
2024/01/17 11:13:17;;;;;;;;;;;12.60;99.90;;;;;;5110277;28;20799;-77
2024/01/17 11:15:43;;;;;;;;;;;12.40;99.90;;;;;;5101178;28;20395;-76
2024/01/17 11:18:12;;;;;;;;;;;12.40;99.90;;;;;;5111751;28;20310;-78
2024/01/17 11:20:38;;;;;;;;;;;12.30;99.90;;;;;;5100587;28;19907;-77
2024/01/17 11:23:05;;;;;;;;;;;12.20;99.90;;;;;;5105087;28;19915;-77
2024/01/17 11:25:30;;;;;;;;;;;12.10;99.90;;;;;;5110047;28;19951;-76
2024/01/17 11:28:09;;;;;;;;;;;12.00;99.90;;;;;;5106972;28;20342;-78
2024/01/17 11:30:37;;;;;;;;;;;12.00;99.90;;;;;;5104054;28;20329;-79
2024/01/17 11:33:06;;;;;;;;;;;12.00;99.90;;;;;;5106610;28;19911;-76
2024/01/17 11:35:45;;;;;;;;;;;11.90;99.90;;;;;;5105713;28;20522;-76
2024/01/17 11:38:34;;;;;;;;;;;11.90;99.90;;;;;;5100019;28;20011;-79
2024/01/17 11:41:09;;;;;;;;;;;11.80;99.90;;;;;;5104203;28;19971;-77
2024/01/17 11:43:38;;;;;;;;;;;11.80;99.90;;;;;;5102626;28;19931;-76
2024/01/17 11:46:07;;;;;;;;;;;11.70;99.90;;;;;;5105652;28;19908;-76
2024/01/17 11:48:38;;;;;;;;;;;11.80;99.90;;;;;;5105783;28;19908;-76
2024/01/17 11:51:04;;;;;;;;;;;11.80;99.90;;;;;;5106180;28;19912;-77
2024/01/17 11:53:31;;;;;;;;;;;11.80;99.90;;;;;;5104184;28;19908;-77
2024/01/17 11:55:58;;;;;;;;;;;11.80;99.90;;;;;;5104110;28;20356;-77
2024/01/17 11:58:43;;;;;;;;;;;11.80;99.90;;;;;;5107404;28;19904;-78
2024/01/17 12:01:10;;;;;;;;;;;11.80;99.90;;;;;;5100048;28;19903;-76
2024/01/17 12:03:35;;;;;;;;;;;11.90;99.90;;;;;;5102222;28;19903;-75
2024/01/17 12:06:01;;;;;;;;;;;11.90;99.90;;;;;;5106661;28;19908;-76
2024/01/17 12:08:27;;;;;;;;;;;11.90;99.90;;;;;;5100430;28;19946;-76
2024/01/17 12:10:56;;;;;;;;;;;11.90;99.90;;;;;;5102580;28;20418;-76
2024/01/17 12:13:23;;;;;;;;;;;11.90;99.90;;;;;;5104940;28;20597;-76
2024/01/17 12:15:53;;;;;;;;;;;11.90;99.90;;;;;;5100751;28;20397;-76
2024/01/17 12:18:20;;;;;;;;;;;11.80;99.90;;;;;;5101584;28;19908;-76
2024/01/17 12:20:47;;;;;;;;;;;11.80;99.90;;;;;;5105076;28;19908;-76
2024/01/17 12:23:12;;;;;;;;;;;11.80;99.90;;;;;;5104199;28;20006;-76
2024/01/17 12:25:38;;;;;;;;;;;11.90;99.90;;;;;;5106093;28;20295;-77
2024/01/17 12:28:04;;;;;;;;;;;11.90;99.90;;;;;;5100622;28;19981;-76
2024/01/17 12:30:29;;;;;;;;;;;11.90;99.90;;;;;;5105511;28;19904;-78
2024/01/17 12:32:55;;;;;;;;;;;11.90;99.90;;;;;;5103809;28;19916;-76
2024/01/17 12:35:21;;;;;;;;;;;11.90;99.90;;;;;;5103239;28;19911;-76
2024/01/17 12:37:46;;;;;;;;;;;11.90;99.90;;;;;;5105386;27;19908;-81
2024/01/17 12:40:12;;;;;;;;;;;12.00;99.90;;;;;;5106658;28;19947;-76
2024/01/17 12:42:37;;;;;;;;;;;12.00;99.90;;;;;;5097984;28;19904;-79
2024/01/17 12:45:03;;;;;;;;;;;12.00;99.90;;;;;;5103693;28;19930;-80
2024/01/17 12:47:29;;;;;;;;;;;12.00;99.90;;;;;;5102777;28;19908;-77
2024/01/17 12:49:54;;;;;;;;;;;12.00;99.90;;;;;;5104714;28;19912;-77
2024/01/17 12:52:20;;;;;;;;;;;12.10;99.90;;;;;;5101565;28;19987;-78
2024/01/17 12:54:46;;;;;;;;;;;12.10;99.90;;;;;;5101609;28;19926;-78
2024/01/17 12:57:12;;;;;;;;;;;12.10;99.90;;;;;;5109293;27;19925;-78
2024/01/17 12:59:37;;;;;;;;;;;12.10;99.90;;;;;;5105766;28;20023;-77
2024/01/17 13:02:08;;;;;;;;;;;12.10;99.90;;;;;;5108227;28;19990;-79
2024/01/17 13:04:33;;;;;;;;;;;12.10;99.90;;;;;;5103614;28;20041;-77
2024/01/17 13:06:59;;;;;;;;;;;12.10;99.90;;;;;;5111918;28;20006;-79
2024/01/17 13:09:28;;;;;;;;;;;12.10;99.90;;;;;;5109105;28;20757;-77
2024/01/17 13:11:54;;;;;;;;;;;12.10;99.90;;;;;;5099667;28;19916;-81
2024/01/17 13:14:20;;;;;;;;;;;12.10;99.90;;;;;;5103835;28;19915;-80
2024/01/17 13:16:46;;;;;;;;;;;12.10;99.90;;;;;;5104774;28;19904;-82
2024/01/17 13:19:13;;;;;;;;;;;12.10;99.90;;;;;;5102430;28;19935;-81
2024/01/17 13:21:48;;;;;;;;;;;12.10;99.90;;;;;;5109681;28;20295;-80
2024/01/17 13:24:14;;;;;;;;;;;12.20;99.90;;;;;;5110429;28;20293;-86
2024/01/17 13:26:40;;;;;;;;;;;12.20;99.90;;;;;;5115467;28;19904;-82
2024/01/17 13:29:06;;;;;;;;;;;12.20;99.90;;;;;;5115338;28;19904;-80
2024/01/17 13:31:32;;;;;;;;;;;12.30;99.90;;;;;;5112468;28;20427;-83
2024/01/17 13:34:00;;;;;;;;;;;12.40;99.90;;;;;;5117455;28;19926;-84
2024/01/17 13:36:26;;;;;;;;;;;12.50;99.90;;;;;;5112229;28;20356;-85
2024/01/17 13:38:52;;;;;;;;;;;12.60;99.90;;;;;;5113989;28;19969;-83
2024/01/17 13:41:18;;;;;;;;;;;12.70;99.90;;;;;;5111930;28;20409;-84
2024/01/17 13:43:44;;;;;;;;;;;12.70;99.90;;;;;;5115659;27;19907;-84
2024/01/17 13:46:09;;;;;;;;;;;12.70;99.90;;;;;;5108913;27;20002;-86
2024/01/17 13:48:35;;;;;;;;;;;12.70;99.90;;;;;;5120457;27;19947;-84
2024/01/17 13:51:01;;;;;;;;;;;12.70;99.90;;;;;;5114307;28;20417;-85
2024/01/17 13:53:32;;;;;;;;;;;12.70;99.90;;;;;;5113653;28;19907;-84
2024/01/17 13:55:58;;;;;;;;;;;12.80;99.90;;;;;;5117772;28;19943;-84
2024/01/17 13:58:23;;;;;;;;;;;12.70;99.90;;;;;;5114587;28;20419;-81
2024/01/17 14:00:52;;;;;;;;;;;12.70;99.90;;;;;;5114528;28;19907;-82
2024/01/17 14:03:18;;;;;;;;;;;12.60;99.90;;;;;;5114240;28;19989;-86
2024/01/17 14:05:44;;;;;;;;;;;12.60;99.90;;;;;;5113965;28;20287;-84
2024/01/17 14:08:09;;;;;;;;;;;12.60;99.90;;;;;;5116625;28;19907;-80
2024/01/17 14:10:35;;;;;;;;;;;12.50;99.90;;;;;;5110807;28;19908;-83